createdAt,value
2019-05-30T00:02:12.372Z,12.10
2019-05-30T00:04:42.673Z,12.10
2019-05-30T00:07:13.010Z,12.10
2019-05-30T00:09:43.417Z,12.10
2019-05-30T00:12:13.728Z,12.10
2019-05-30T00:14:44.031Z,12.00
2019-05-30T00:17:14.351Z,12.00
2019-05-30T00:19:44.648Z,12.00
2019-05-30T00:22:15.011Z,11.90
2019-05-30T00:24:45.339Z,11.90
2019-05-30T00:27:15.655Z,11.90
2019-05-30T00:29:45.957Z,11.90
2019-05-30T00:32:16.294Z,11.90
2019-05-30T00:34:46.687Z,11.90
2019-05-30T00:37:16.993Z,11.80
2019-05-30T00:39:47.439Z,11.80
2019-05-30T00:42:17.747Z,11.80
2019-05-30T00:44:48.150Z,11.80
2019-05-30T00:47:18.465Z,11.80
2019-05-30T00:49:48.786Z,11.70
2019-05-30T00:52:19.190Z,11.70
2019-05-30T00:54:49.553Z,11.70
2019-05-30T00:57:19.954Z,11.70
2019-05-30T00:59:50.351Z,11.60
2019-05-30T01:02:20.742Z,11.60
2019-05-30T01:04:51.063Z,11.60
2019-05-30T01:07:21.575Z,11.60
2019-05-30T01:09:52.993Z,11.60
2019-05-30T01:12:23.507Z,11.60
2019-05-30T01:14:53.887Z,11.50
2019-05-30T01:17:24.212Z,11.60
2019-05-30T01:19:54.619Z,11.50
2019-05-30T01:22:24.949Z,11.50
2019-05-30T01:24:55.387Z,11.50
2019-05-30T01:27:25.754Z,11.50
2019-05-30T01:29:57.285Z,11.50
2019-05-30T01:32:30.887Z,11.50
2019-05-30T01:35:01.998Z,11.40
2019-05-30T01:37:32.417Z,11.40
2019-05-30T01:40:03.918Z,11.40
2019-05-30T01:42:34.636Z,11.30
2019-05-30T01:45:06.266Z,11.30
2019-05-30T01:47:36.633Z,11.30
2019-05-30T01:50:07.029Z,11.20
2019-05-30T01:52:37.456Z,11.20
2019-05-30T01:55:09.023Z,11.20
2019-05-30T01:57:39.594Z,11.20
2019-05-30T02:00:19.936Z,11.20
2019-05-30T02:02:43.633Z,11.20
2019-05-30T02:05:14.837Z,11.20
2019-05-30T02:07:45.174Z,11.10
2019-05-30T02:10:17.073Z,11.10
2019-05-30T02:12:47.366Z,11.10
2019-05-30T02:15:17.982Z,11.10
2019-05-30T02:17:48.277Z,11.10
2019-05-30T02:20:18.916Z,11.10
2019-05-30T02:22:49.190Z,11.10
2019-05-30T02:25:20.393Z,11.00
2019-05-30T02:27:50.732Z,11.00
2019-05-30T02:30:21.240Z,11.00
2019-05-30T02:32:52.584Z,11.00
2019-05-30T02:35:23.784Z,10.90
2019-05-30T02:37:54.146Z,10.90
2019-05-30T02:40:26.078Z,10.90
2019-05-30T02:42:56.407Z,10.80
2019-05-30T02:45:26.705Z,10.80
2019-05-30T02:47:57.114Z,10.80
2019-05-30T02:50:27.405Z,10.70
2019-05-30T02:52:57.780Z,10.70
2019-05-30T02:55:28.155Z,10.70
2019-05-30T02:57:58.525Z,10.70
2019-05-30T03:00:36.598Z,10.70
2019-05-30T03:03:09.161Z,10.70
2019-05-30T03:05:38.675Z,10.70
2019-05-30T03:08:11.549Z,10.60
2019-05-30T03:10:42.388Z,10.60
2019-05-30T03:13:12.999Z,10.70
2019-05-30T03:15:43.595Z,10.60
2019-05-30T03:18:14.936Z,10.60
2019-05-30T03:20:45.763Z,10.60
2019-05-30T03:23:16.133Z,10.60
2019-05-30T03:25:46.464Z,10.60
2019-05-30T03:28:16.959Z,10.60
2019-05-30T03:30:47.366Z,10.60
2019-05-30T03:33:35.993Z,10.50
2019-05-30T03:35:49.779Z,10.50
2019-05-30T03:38:20.393Z,10.50
2019-05-30T03:40:51.142Z,10.50
2019-05-30T03:43:21.464Z,10.50
2019-05-30T03:45:52.151Z,10.50
2019-05-30T03:48:25.843Z,10.40
2019-05-30T03:50:58.849Z,10.50
2019-05-30T03:53:29.215Z,10.50
2019-05-30T03:56:06.669Z,10.50
2019-05-30T03:59:00.205Z,10.50
2019-05-30T04:01:37.402Z,10.50
2019-05-30T04:04:14.577Z,10.50
2019-05-30T04:06:49.261Z,10.50
2019-05-30T04:09:24.690Z,10.50
2019-05-30T04:12:20.926Z,10.50
2019-05-30T04:14:54.285Z,10.50
2019-05-30T04:17:24.602Z,10.50
2019-05-30T04:19:55.027Z,10.50
2019-05-30T04:22:25.474Z,10.50
2019-05-30T04:24:55.860Z,10.50
2019-05-30T04:27:26.170Z,10.50
2019-05-30T04:29:56.578Z,10.60
2019-05-30T04:32:26.881Z,10.50
2019-05-30T04:34:57.192Z,10.50
2019-05-30T04:37:27.502Z,10.60
2019-05-30T04:39:57.814Z,10.60
2019-05-30T04:42:28.118Z,10.60
2019-05-30T04:44:58.450Z,10.70
2019-05-30T04:47:28.768Z,10.80
2019-05-30T04:49:59.113Z,10.80
2019-05-30T04:52:29.423Z,10.80
2019-05-30T04:54:59.743Z,10.80
2019-05-30T04:57:30.113Z,10.90
2019-05-30T05:00:00.503Z,10.90
2019-05-30T05:02:30.814Z,11.00
2019-05-30T05:05:01.162Z,11.00
2019-05-30T05:07:31.466Z,11.00
2019-05-30T05:10:01.801Z,11.10
2019-05-30T05:12:32.106Z,11.10
2019-05-30T05:15:02.433Z,11.20
2019-05-30T05:17:33.000Z,11.20
2019-05-30T05:20:03.535Z,11.20
2019-05-30T05:22:33.884Z,11.30
2019-05-30T05:25:04.525Z,11.30
2019-05-30T05:27:34.903Z,11.30
2019-05-30T05:30:07.710Z,11.40
2019-05-30T05:32:38.774Z,11.40
2019-05-30T05:35:09.112Z,11.40
2019-05-30T05:37:39.953Z,11.40
2019-05-30T05:40:10.467Z,11.50
2019-05-30T05:42:42.037Z,11.50
2019-05-30T05:45:13.264Z,11.60
2019-05-30T05:47:43.577Z,11.60
2019-05-30T05:50:13.913Z,11.70
2019-05-30T05:52:44.226Z,11.70
2019-05-30T05:55:14.794Z,11.80
2019-05-30T05:57:45.286Z,11.90
2019-05-30T06:00:16.890Z,11.90
2019-05-30T06:02:47.293Z,12.00
2019-05-30T06:05:18.016Z,12.10
2019-05-30T06:07:48.451Z,12.10
2019-05-30T06:10:19.654Z,12.10
2019-05-30T06:12:49.970Z,12.20
2019-05-30T06:15:20.823Z,12.20
2019-05-30T06:17:51.269Z,12.30
2019-05-30T06:20:21.686Z,12.40
2019-05-30T06:22:53.594Z,12.40
2019-05-30T06:25:26.680Z,12.40
2019-05-30T06:27:55.878Z,12.40
2019-05-30T06:30:26.477Z,12.40
2019-05-30T06:32:58.207Z,12.50
2019-05-30T06:35:29.478Z,12.60
2019-05-30T06:37:59.919Z,12.70
2019-05-30T06:40:32.145Z,12.70
2019-05-30T06:43:02.403Z,12.80
2019-05-30T06:45:32.717Z,12.80
2019-05-30T06:48:03.078Z,12.80
2019-05-30T06:50:33.527Z,12.90
2019-05-30T06:53:03.863Z,12.90
2019-05-30T06:55:34.197Z,13.00
2019-05-30T06:58:04.612Z,13.10
2019-05-30T07:00:35.122Z,13.10
2019-05-30T07:03:05.762Z,13.20
2019-05-30T07:05:36.796Z,13.30
2019-05-30T07:08:07.102Z,13.40
2019-05-30T07:10:37.521Z,13.50
2019-05-30T07:13:07.875Z,13.60
2019-05-30T07:15:38.377Z,13.70
2019-05-30T07:18:08.652Z,13.80
2019-05-30T07:20:39.119Z,13.90
2019-05-30T07:23:09.543Z,14.10
2019-05-30T07:25:42.826Z,14.30
2019-05-30T07:28:14.395Z,14.40
2019-05-30T07:30:44.483Z,14.60
2019-05-30T07:33:15.612Z,14.80
2019-05-30T07:35:46.987Z,15.00
2019-05-30T07:38:17.223Z,15.10
2019-05-30T07:40:47.579Z,15.20
2019-05-30T07:43:17.995Z,15.30
2019-05-30T07:45:57.706Z,15.40
2019-05-30T07:48:20.963Z,15.40
2019-05-30T07:50:51.884Z,15.50
2019-05-30T07:53:23.094Z,15.50
2019-05-30T07:55:53.641Z,15.50
2019-05-30T07:58:24.117Z,15.50
2019-05-30T08:00:54.486Z,15.50
2019-05-30T08:03:26.378Z,15.50
2019-05-30T08:06:00.593Z,15.60
2019-05-30T08:08:31.869Z,15.60
2019-05-30T08:11:09.622Z,15.60
2019-05-30T08:13:33.854Z,15.70
2019-05-30T08:16:04.587Z,15.70
2019-05-30T08:18:35.844Z,15.70
2019-05-30T08:21:06.494Z,15.80
2019-05-30T08:23:36.814Z,15.70
2019-05-30T08:26:07.902Z,15.70
2019-05-30T08:28:39.012Z,15.70
2019-05-30T08:31:10.581Z,15.80
2019-05-30T08:33:41.022Z,15.80
2019-05-30T08:36:11.468Z,15.80
2019-05-30T08:38:41.765Z,15.80
2019-05-30T08:41:12.090Z,15.80
2019-05-30T08:43:42.400Z,15.80
2019-05-30T08:46:12.798Z,15.90
2019-05-30T08:48:43.261Z,15.90
2019-05-30T08:51:13.637Z,16.00
2019-05-30T08:53:43.962Z,16.00
2019-05-30T08:56:14.400Z,16.10
2019-05-30T08:58:44.661Z,16.10
2019-05-30T09:01:15.086Z,16.10
2019-05-30T09:03:46.272Z,16.20
2019-05-30T09:06:16.623Z,16.20
2019-05-30T09:08:47.130Z,16.30
2019-05-30T09:11:17.434Z,16.40
2019-05-30T09:13:47.793Z,16.50
2019-05-30T09:16:18.097Z,16.50
2019-05-30T09:18:48.462Z,16.50
2019-05-30T09:21:18.741Z,16.60
2019-05-30T09:23:49.110Z,16.60
2019-05-30T09:26:19.591Z,16.70
2019-05-30T09:28:50.008Z,16.80
2019-05-30T09:31:20.405Z,16.90
2019-05-30T09:33:50.799Z,16.90
2019-05-30T09:36:21.118Z,17.00
2019-05-30T09:38:52.673Z,17.10
2019-05-30T09:41:22.981Z,17.20
2019-05-30T09:44:01.303Z,17.30
2019-05-30T09:46:31.921Z,17.40
2019-05-30T09:49:03.352Z,17.40
2019-05-30T09:51:33.877Z,17.50
2019-05-30T09:54:04.695Z,17.50
2019-05-30T09:56:35.005Z,17.60
2019-05-30T09:59:05.784Z,17.60
2019-05-30T10:01:36.082Z,17.70
2019-05-30T10:04:06.462Z,17.80
2019-05-30T10:06:36.767Z,17.80
2019-05-30T10:09:08.882Z,17.90
2019-05-30T10:11:39.529Z,18.10
2019-05-30T10:14:09.924Z,18.20
2019-05-30T10:16:40.485Z,18.20
2019-05-30T10:19:10.789Z,18.20
2019-05-30T10:21:41.126Z,18.20
2019-05-30T10:24:11.657Z,18.10
2019-05-30T10:26:42.073Z,18.10
2019-05-30T10:29:12.373Z,18.10
2019-05-30T10:31:42.690Z,18.20
2019-05-30T10:34:13.261Z,18.30
2019-05-30T10:36:44.684Z,18.50
2019-05-30T10:39:16.773Z,18.50
2019-05-30T10:41:47.604Z,18.60
2019-05-30T10:44:18.529Z,18.60
2019-05-30T10:46:51.095Z,18.70
2019-05-30T10:49:34.146Z,18.70
2019-05-30T10:51:58.843Z,18.60
2019-05-30T10:54:30.568Z,18.60
2019-05-30T10:57:02.428Z,18.60
2019-05-30T10:59:32.771Z,18.60
2019-05-30T11:02:03.102Z,18.70
2019-05-30T11:04:33.433Z,18.70
2019-05-30T11:07:13.889Z,18.60
2019-05-30T11:09:48.677Z,18.60
2019-05-30T11:12:19.340Z,18.60
2019-05-30T11:14:51.405Z,18.50
2019-05-30T11:17:22.054Z,18.50
2019-05-30T11:19:53.986Z,18.50
2019-05-30T11:22:24.739Z,18.40
2019-05-30T11:24:56.798Z,18.30
2019-05-30T11:27:27.145Z,18.40
2019-05-30T11:29:57.452Z,18.40
2019-05-30T11:32:27.835Z,18.40
2019-05-30T11:34:59.650Z,18.40
2019-05-30T11:37:30.048Z,18.50
2019-05-30T11:40:00.371Z,18.60
2019-05-30T11:42:30.702Z,18.70
2019-05-30T11:45:01.102Z,18.70
2019-05-30T11:47:31.407Z,18.80
2019-05-30T11:50:01.721Z,18.80
2019-05-30T11:52:32.030Z,18.80
2019-05-30T11:55:02.339Z,18.80
2019-05-30T11:57:32.724Z,19.00
2019-05-30T12:00:03.152Z,19.00
2019-05-30T12:02:33.518Z,19.10
2019-05-30T12:05:04.577Z,19.10
2019-05-30T12:07:36.731Z,19.10
2019-05-30T12:10:07.297Z,19.10
2019-05-30T12:12:39.409Z,19.20
2019-05-30T12:15:13.271Z,19.20
2019-05-30T12:17:43.501Z,19.10
2019-05-30T12:20:15.614Z,19.10
2019-05-30T12:22:45.917Z,19.20
2019-05-30T12:25:16.827Z,19.30
2019-05-30T12:27:47.136Z,19.20
2019-05-30T12:30:19.038Z,19.10
2019-05-30T12:32:49.342Z,19.00
2019-05-30T12:35:19.850Z,18.70
2019-05-30T12:37:58.401Z,18.70
2019-05-30T12:40:22.421Z,18.70
2019-05-30T12:42:55.784Z,18.90
2019-05-30T12:45:25.125Z,19.10
2019-05-30T12:47:55.575Z,19.30
2019-05-30T12:50:25.975Z,19.30
2019-05-30T12:52:57.496Z,19.40
2019-05-30T12:55:27.918Z,19.60
2019-05-30T12:57:58.639Z,19.80
2019-05-30T13:00:30.315Z,19.80
2019-05-30T13:03:00.891Z,19.90
2019-05-30T13:05:34.291Z,20.00
2019-05-30T13:08:17.620Z,20.10
2019-05-30T13:10:36.659Z,20.10
2019-05-30T13:13:06.775Z,20.10
2019-05-30T13:15:37.240Z,20.30
2019-05-30T13:18:07.620Z,20.50
2019-05-30T13:20:38.055Z,20.50
2019-05-30T13:23:08.346Z,20.60
2019-05-30T13:25:38.749Z,20.90
2019-05-30T13:28:09.055Z,21.20
2019-05-30T13:30:39.897Z,21.60
2019-05-30T13:33:10.194Z,21.70
2019-05-30T13:35:40.972Z,21.80
2019-05-30T13:38:25.483Z,21.80
2019-05-30T13:40:43.237Z,21.80
2019-05-30T13:43:13.547Z,21.70
2019-05-30T13:45:43.869Z,21.60
2019-05-30T13:48:14.306Z,21.50
2019-05-30T13:50:44.768Z,21.40
2019-05-30T13:53:15.073Z,21.30
2019-05-30T13:55:45.411Z,21.30
2019-05-30T13:58:15.714Z,21.30
2019-05-30T14:00:46.034Z,21.20
2019-05-30T14:03:16.339Z,21.20
2019-05-30T14:05:46.666Z,21.20
2019-05-30T14:08:16.964Z,21.10
2019-05-30T14:10:47.357Z,21.10
2019-05-30T14:13:18.272Z,20.80
2019-05-30T14:15:48.636Z,20.80
2019-05-30T14:18:19.020Z,20.80
2019-05-30T14:20:50.488Z,20.70
2019-05-30T14:23:20.754Z,20.60
2019-05-30T14:25:52.920Z,20.70
2019-05-30T14:28:24.736Z,20.70
2019-05-30T14:30:55.034Z,20.80
2019-05-30T14:33:25.342Z,20.80
2019-05-30T14:35:55.726Z,20.80
2019-05-30T14:38:26.043Z,20.80
2019-05-30T14:40:56.347Z,20.80
2019-05-30T14:43:26.655Z,20.90
2019-05-30T14:45:56.963Z,20.90
2019-05-30T14:48:27.289Z,21.00
2019-05-30T14:50:57.649Z,21.00
2019-05-30T14:53:27.953Z,21.00
2019-05-30T14:55:58.282Z,21.20
2019-05-30T14:58:28.581Z,21.30
2019-05-30T15:00:58.990Z,21.30
2019-05-30T15:03:29.521Z,21.40
2019-05-30T15:05:59.845Z,21.50
2019-05-30T15:08:30.182Z,21.50
2019-05-30T15:11:00.505Z,21.50
2019-05-30T15:13:30.931Z,21.50
2019-05-30T15:16:01.412Z,21.50
2019-05-30T15:18:31.716Z,21.50
2019-05-30T15:21:02.043Z,21.40
2019-05-30T15:23:32.338Z,21.40
2019-05-30T15:26:02.684Z,21.20
2019-05-30T15:28:33.006Z,21.30
2019-05-30T15:31:03.349Z,21.30
2019-05-30T15:33:33.646Z,21.30
2019-05-30T15:36:03.990Z,21.30
2019-05-30T15:38:34.293Z,21.20
2019-05-30T15:41:04.643Z,21.20
2019-05-30T15:43:34.950Z,21.10
2019-05-30T15:46:05.318Z,20.90
2019-05-30T15:48:35.810Z,20.90
2019-05-30T15:51:06.181Z,20.60
2019-05-30T15:53:36.571Z,20.60
2019-05-30T15:56:06.530Z,20.50
2019-05-30T15:58:36.913Z,20.50
2019-05-30T16:01:07.383Z,20.30
2019-05-30T16:03:38.796Z,20.30
2019-05-30T16:06:11.020Z,20.30
2019-05-30T16:08:41.273Z,20.20
2019-05-30T16:11:12.736Z,20.10
2019-05-30T16:13:44.345Z,20.10
2019-05-30T16:16:15.697Z,20.10
2019-05-30T16:18:46.074Z,20.20
2019-05-30T16:21:17.551Z,20.10
2019-05-30T16:23:48.325Z,20.10
2019-05-30T16:26:21.963Z,20.10
2019-05-30T16:28:52.369Z,20.20
2019-05-30T16:31:22.686Z,20.10
2019-05-30T16:33:53.000Z,20.00
2019-05-30T16:36:23.361Z,19.90
2019-05-30T16:38:53.671Z,19.70
2019-05-30T16:41:23.973Z,19.70
2019-05-30T16:43:54.375Z,19.70
2019-05-30T16:46:24.768Z,19.70
2019-05-30T16:48:55.130Z,19.70
2019-05-30T16:51:25.431Z,19.60
2019-05-30T16:53:55.862Z,19.60
2019-05-30T16:56:26.253Z,19.50
2019-05-30T16:58:56.568Z,19.50
2019-05-30T17:01:26.899Z,19.50
2019-05-30T17:03:57.231Z,19.50
2019-05-30T17:06:28.046Z,19.50
2019-05-30T17:08:58.364Z,19.50
2019-05-30T17:11:28.822Z,19.50
2019-05-30T17:13:59.269Z,19.50
2019-05-30T17:16:29.630Z,19.50
2019-05-30T17:18:59.948Z,19.50
2019-05-30T17:21:30.337Z,19.60
2019-05-30T17:24:00.881Z,19.60
2019-05-30T17:26:31.867Z,19.60
2019-05-30T17:29:02.342Z,19.60
2019-05-30T17:31:32.655Z,19.70
2019-05-30T17:34:03.677Z,19.60
2019-05-30T17:36:34.042Z,19.50
2019-05-30T17:39:06.613Z,19.40
2019-05-30T17:41:36.917Z,19.30
2019-05-30T17:44:07.591Z,19.20
2019-05-30T17:46:37.993Z,19.20
2019-05-30T17:49:08.349Z,19.10
2019-05-30T17:51:39.063Z,19.00
2019-05-30T17:54:09.574Z,19.00
2019-05-30T17:56:40.327Z,19.00
2019-05-30T17:59:10.626Z,19.00
2019-05-30T18:01:41.362Z,19.00
2019-05-30T18:04:11.726Z,19.00
2019-05-30T18:06:42.059Z,19.00
2019-05-30T18:09:12.412Z,19.00
2019-05-30T18:11:42.754Z,19.00
2019-05-30T18:14:13.098Z,19.00
2019-05-30T18:16:43.508Z,19.10
2019-05-30T18:19:13.850Z,19.00
2019-05-30T18:21:44.378Z,19.00
2019-05-30T18:24:14.734Z,19.00
2019-05-30T18:26:45.040Z,19.00
2019-05-30T18:29:18.721Z,19.10
2019-05-30T18:31:47.442Z,19.10
2019-05-30T18:34:17.784Z,19.20
2019-05-30T18:36:48.098Z,19.20
2019-05-30T18:39:18.561Z,19.30
2019-05-30T18:41:48.922Z,19.40
2019-05-30T18:44:20.957Z,19.60
2019-05-30T18:46:51.281Z,19.70
2019-05-30T18:49:22.925Z,19.70
2019-05-30T18:51:53.414Z,19.70
2019-05-30T18:54:24.398Z,19.50
2019-05-30T18:56:54.905Z,19.30
2019-05-30T18:59:25.213Z,19.20
2019-05-30T19:01:55.518Z,19.20
2019-05-30T19:04:25.822Z,19.10
2019-05-30T19:06:56.135Z,19.00
2019-05-30T19:09:26.943Z,19.00
2019-05-30T19:11:57.247Z,19.00
2019-05-30T19:14:31.014Z,19.00
2019-05-30T19:16:59.582Z,18.90
2019-05-30T19:19:29.893Z,18.90
2019-05-30T19:22:00.247Z,18.80
2019-05-30T19:24:30.667Z,18.80
2019-05-30T19:27:00.942Z,18.70
2019-05-30T19:29:31.256Z,18.70
2019-05-30T19:32:01.559Z,18.60
2019-05-30T19:34:33.060Z,18.50
2019-05-30T19:37:03.542Z,18.40
2019-05-30T19:39:33.887Z,18.30
2019-05-30T19:42:04.290Z,18.20
2019-05-30T19:44:38.361Z,18.10
2019-05-30T19:47:08.269Z,18.10
2019-05-30T19:49:40.241Z,18.00
2019-05-30T19:52:12.200Z,18.00
2019-05-30T19:54:43.149Z,18.00
2019-05-30T19:57:13.568Z,18.00
2019-05-30T19:59:43.962Z,18.00
2019-05-30T20:02:14.605Z,17.90
2019-05-30T20:04:44.958Z,17.90
2019-05-30T20:07:15.306Z,17.80
2019-05-30T20:10:00.238Z,17.80
2019-05-30T20:12:18.011Z,17.80
2019-05-30T20:14:52.664Z,17.80
2019-05-30T20:17:24.243Z,17.70
2019-05-30T20:19:55.231Z,17.70
2019-05-30T20:22:27.912Z,17.70
2019-05-30T20:24:57.830Z,17.70
2019-05-30T20:27:30.415Z,17.70
2019-05-30T20:30:00.846Z,17.70
2019-05-30T20:32:31.977Z,17.70
2019-05-30T20:35:04.966Z,17.70
2019-05-30T20:37:36.797Z,17.70
2019-05-30T20:40:08.090Z,17.70
2019-05-30T20:42:38.986Z,17.70
2019-05-30T20:45:10.750Z,17.60
2019-05-30T20:47:44.484Z,17.60
2019-05-30T20:50:19.664Z,17.60
2019-05-30T20:52:52.101Z,17.60
2019-05-30T20:55:23.459Z,17.60
2019-05-30T20:57:59.236Z,17.60
2019-05-30T21:00:40.413Z,17.60
2019-05-30T21:03:12.197Z,17.60
2019-05-30T21:05:44.176Z,17.50
2019-05-30T21:08:15.645Z,17.60
2019-05-30T21:10:47.460Z,17.60
2019-05-30T21:13:19.528Z,17.50
2019-05-30T21:15:50.631Z,17.50
2019-05-30T21:18:21.021Z,17.50
2019-05-30T21:20:51.322Z,17.50
2019-05-30T21:23:21.653Z,17.50
2019-05-30T21:25:51.971Z,17.40
2019-05-30T21:28:22.286Z,17.40
2019-05-30T21:30:52.674Z,17.30
2019-05-30T21:33:22.998Z,17.30
2019-05-30T21:35:53.326Z,17.30
2019-05-30T21:38:23.599Z,17.20
2019-05-30T21:40:53.942Z,17.20
2019-05-30T21:43:24.247Z,17.10
2019-05-30T21:45:54.594Z,17.10
2019-05-30T21:48:24.919Z,17.00
2019-05-30T21:50:55.254Z,17.00
2019-05-30T21:53:25.710Z,16.90
2019-05-30T21:55:56.110Z,16.80
2019-05-30T21:58:26.425Z,16.80
2019-05-30T22:01:31.268Z,16.70
2019-05-30T22:04:01.761Z,16.70
2019-05-30T22:06:32.191Z,16.60
2019-05-30T22:09:03.735Z,16.60
2019-05-30T22:11:34.343Z,16.60
2019-05-30T22:14:04.853Z,16.60
2019-05-30T22:16:35.250Z,16.50
2019-05-30T22:19:06.022Z,16.50
2019-05-30T22:21:36.363Z,16.50
2019-05-30T22:24:06.935Z,16.50
2019-05-30T22:26:37.406Z,16.40
2019-05-30T22:29:07.698Z,16.40
2019-05-30T22:31:38.451Z,16.40
2019-05-30T22:34:08.861Z,16.40
2019-05-30T22:36:39.667Z,16.30
2019-05-30T22:39:09.988Z,16.30
2019-05-30T22:41:40.847Z,16.30
2019-05-30T22:44:11.414Z,16.30
2019-05-30T22:46:41.722Z,16.30
2019-05-30T22:49:12.050Z,16.30
2019-05-30T22:51:42.362Z,16.20
2019-05-30T22:54:12.669Z,16.20
2019-05-30T22:56:43.029Z,16.20
2019-05-30T22:59:13.358Z,16.20
2019-05-30T23:01:44.809Z,16.10
2019-05-30T23:04:15.207Z,16.10
2019-05-30T23:06:46.230Z,16.10
2019-05-30T23:09:16.681Z,16.10
2019-05-30T23:11:47.677Z,16.00
2019-05-30T23:14:18.078Z,16.00
2019-05-30T23:16:48.389Z,16.00
2019-05-30T23:19:18.699Z,16.00
2019-05-30T23:21:49.005Z,16.00
2019-05-30T23:24:19.459Z,16.00
2019-05-30T23:26:49.765Z,15.90
2019-05-30T23:29:20.069Z,15.90
2019-05-30T23:31:50.485Z,15.90
2019-05-30T23:34:20.786Z,15.90
2019-05-30T23:36:52.154Z,15.90
2019-05-30T23:39:22.740Z,15.90
2019-05-30T23:41:53.178Z,15.90
2019-05-30T23:44:23.592Z,15.80
2019-05-30T23:46:55.790Z,15.80
2019-05-30T23:49:26.057Z,15.80
2019-05-30T23:51:56.385Z,15.80
2019-05-30T23:54:26.766Z,15.80
2019-05-30T23:56:58.494Z,15.80
2019-05-30T23:59:28.966Z,15.80
